createdAt,value
2023-01-23T00:01:09.031Z,9.45
2023-01-23T00:03:35.545Z,7.47
2023-01-23T00:06:06.753Z,9.25
2023-01-23T00:08:35.121Z,7.70
2023-01-23T00:11:05.416Z,8.68
2023-01-23T00:13:32.072Z,7.55
2023-01-23T00:16:03.986Z,7.05
2023-01-23T00:18:30.578Z,7.47
2023-01-23T00:20:58.455Z,8.23
2023-01-23T00:23:24.994Z,9.18
2023-01-23T00:25:51.527Z,9.43
2023-01-23T00:28:18.070Z,8.88
2023-01-23T00:30:44.691Z,8.35
2023-01-23T00:33:11.344Z,9.43
2023-01-23T00:35:37.864Z,6.93
2023-01-23T00:38:05.165Z,7.82
2023-01-23T00:40:31.740Z,7.50
2023-01-23T00:42:58.252Z,9.15
2023-01-23T00:45:24.806Z,7.30
2023-01-23T00:47:51.331Z,7.55
2023-01-23T00:50:18.099Z,10.23
2023-01-23T00:52:44.843Z,6.63
2023-01-23T00:55:11.450Z,10.15
2023-01-23T00:57:37.976Z,7.97
2023-01-23T01:00:05.059Z,8.95
2023-01-23T01:02:31.593Z,8.90
2023-01-23T01:04:58.387Z,11.10
2023-01-23T01:07:25.026Z,10.35
2023-01-23T01:09:51.860Z,8.73
2023-01-23T01:12:19.343Z,8.13
2023-01-23T01:14:45.977Z,7.53
2023-01-23T01:17:12.505Z,9.80
2023-01-23T01:19:39.031Z,11.25
2023-01-23T01:22:05.600Z,10.40
2023-01-23T01:24:32.131Z,8.40
2023-01-23T01:26:58.660Z,9.95
2023-01-23T01:29:25.246Z,9.90
2023-01-23T01:31:51.846Z,10.30
2023-01-23T01:34:18.486Z,8.73
2023-01-23T01:36:45.518Z,9.85
2023-01-23T01:39:12.057Z,11.68
2023-01-23T01:41:38.579Z,10.05
2023-01-23T01:44:05.234Z,10.93
2023-01-23T01:46:33.223Z,8.67
2023-01-23T01:49:06.783Z,7.72
2023-01-23T01:51:44.418Z,8.20
2023-01-23T01:54:22.295Z,10.93
2023-01-23T01:56:52.846Z,10.30
2023-01-23T01:59:20.421Z,9.33
2023-01-23T02:01:47.913Z,8.05
2023-01-23T02:04:15.679Z,9.23
2023-01-23T02:06:44.272Z,7.70
2023-01-23T02:09:17.979Z,8.45
2023-01-23T02:11:45.365Z,9.50
2023-01-23T02:14:12.237Z,9.02
2023-01-23T02:16:41.224Z,8.30
2023-01-23T02:19:22.974Z,11.45
2023-01-23T02:21:51.875Z,9.80
2023-01-23T02:24:59.004Z,10.30
2023-01-23T02:27:27.727Z,9.52
2023-01-23T02:29:56.204Z,9.15
2023-01-23T02:32:24.499Z,10.73
2023-01-23T02:34:55.090Z,8.77
2023-01-23T02:37:24.475Z,10.30
2023-01-23T02:39:50.964Z,8.02
2023-01-23T02:42:20.055Z,8.68
2023-01-23T02:44:47.276Z,9.18
2023-01-23T02:47:13.862Z,8.43
2023-01-23T02:49:40.699Z,9.77
2023-01-23T02:52:07.690Z,8.68
2023-01-23T02:54:34.240Z,7.95
2023-01-23T02:57:00.836Z,9.30
2023-01-23T02:59:46.351Z,9.07
2023-01-23T03:02:14.461Z,8.83
2023-01-23T03:04:41.468Z,9.07
2023-01-23T03:07:08.188Z,10.75
2023-01-23T03:09:34.935Z,10.63
2023-01-23T03:12:02.177Z,9.13
2023-01-23T03:14:30.075Z,9.53
2023-01-23T03:16:56.717Z,8.88
2023-01-23T03:19:25.399Z,10.55
2023-01-23T03:21:52.324Z,9.70
2023-01-23T03:24:19.905Z,9.35
2023-01-23T03:26:47.544Z,8.50
2023-01-23T03:29:39.867Z,8.88
2023-01-23T03:32:07.008Z,9.35
2023-01-23T03:34:34.283Z,9.02
2023-01-23T03:37:01.762Z,10.07
2023-01-23T03:39:46.762Z,8.37
2023-01-23T03:42:13.425Z,10.52
2023-01-23T03:44:42.647Z,9.23
2023-01-23T03:47:09.608Z,10.00
2023-01-23T03:49:36.569Z,8.05
2023-01-23T03:52:04.992Z,16.63
2023-01-23T03:54:37.458Z,11.75
2023-01-23T03:57:04.057Z,9.30
2023-01-23T03:59:30.639Z,8.57
2023-01-23T04:01:58.103Z,9.85
2023-01-23T04:04:24.636Z,8.67
2023-01-23T04:06:51.138Z,9.10
2023-01-23T04:09:17.820Z,10.30
2023-01-23T04:11:44.371Z,9.00
2023-01-23T04:14:12.398Z,11.23
2023-01-23T04:16:38.981Z,10.33
2023-01-23T04:19:05.515Z,11.07
2023-01-23T04:21:32.061Z,9.77
2023-01-23T04:23:59.190Z,9.82
2023-01-23T04:26:28.180Z,10.32
2023-01-23T04:28:54.739Z,9.30
2023-01-23T04:31:21.529Z,10.15
2023-01-23T04:33:48.199Z,9.13
2023-01-23T04:36:14.793Z,10.35
2023-01-23T04:38:41.400Z,9.75
2023-01-23T04:41:08.018Z,9.40
2023-01-23T04:43:35.896Z,9.43
2023-01-23T04:46:02.472Z,9.77
2023-01-23T04:48:28.986Z,9.57
2023-01-23T04:50:56.768Z,10.63
2023-01-23T04:53:23.301Z,9.70
2023-01-23T04:55:52.299Z,8.35
2023-01-23T04:58:21.563Z,10.50
2023-01-23T05:00:48.497Z,12.27
2023-01-23T05:03:15.522Z,10.52
2023-01-23T05:05:44.118Z,8.97
2023-01-23T05:08:14.343Z,10.77
2023-01-23T05:10:41.094Z,9.43
2023-01-23T05:13:09.573Z,13.38
2023-01-23T05:15:36.356Z,9.43
2023-01-23T05:18:03.356Z,10.97
2023-01-23T05:20:29.906Z,10.43
2023-01-23T05:22:58.679Z,10.13
2023-01-23T05:25:27.868Z,10.30
2023-01-23T05:27:55.265Z,10.98
2023-01-23T05:30:25.556Z,11.47
2023-01-23T05:32:52.321Z,9.68
2023-01-23T05:35:19.526Z,9.10
2023-01-23T05:37:51.802Z,11.70
2023-01-23T05:40:20.302Z,10.68
2023-01-23T05:42:48.175Z,11.67
2023-01-23T05:45:15.141Z,13.05
2023-01-23T05:47:42.138Z,12.10
2023-01-23T05:50:11.251Z,10.65
2023-01-23T05:52:37.757Z,10.52
2023-01-23T05:55:04.555Z,11.50
2023-01-23T05:57:31.293Z,19.40
2023-01-23T05:59:58.301Z,11.05
2023-01-23T06:02:24.933Z,12.57
2023-01-23T06:04:51.567Z,11.70
2023-01-23T06:07:19.498Z,11.33
2023-01-23T06:09:46.551Z,12.35
2023-01-23T06:12:13.386Z,11.93
2023-01-23T06:14:43.029Z,10.80
2023-01-23T06:17:11.520Z,11.52
2023-01-23T06:19:38.073Z,13.70
2023-01-23T06:22:04.909Z,12.05
2023-01-23T06:24:31.433Z,12.43
2023-01-23T06:26:59.418Z,9.55
2023-01-23T06:29:26.112Z,10.45
2023-01-23T06:31:52.674Z,11.20
2023-01-23T06:34:21.342Z,13.10
2023-01-23T06:36:50.514Z,11.48
2023-01-23T06:39:19.382Z,13.68
2023-01-23T06:41:45.954Z,10.48
2023-01-23T06:44:12.728Z,10.63
2023-01-23T06:46:39.345Z,13.98
2023-01-23T06:49:06.441Z,11.60
2023-01-23T06:51:35.551Z,12.20
2023-01-23T06:54:03.578Z,15.35
2023-01-23T06:56:30.428Z,10.47
2023-01-23T06:58:57.036Z,9.90
2023-01-23T07:01:24.118Z,12.25
2023-01-23T07:03:50.746Z,9.05
2023-01-23T07:06:19.701Z,8.90
2023-01-23T07:08:46.879Z,11.47
2023-01-23T07:11:13.552Z,11.18
2023-01-23T07:13:40.121Z,10.95
2023-01-23T07:16:07.053Z,9.60
2023-01-23T07:18:36.051Z,9.20
2023-01-23T07:21:07.208Z,11.83
2023-01-23T07:23:43.109Z,13.45
2023-01-23T07:26:12.884Z,10.75
2023-01-23T07:28:39.586Z,10.43
2023-01-23T07:31:06.635Z,9.90
2023-01-23T07:33:33.263Z,9.40
2023-01-23T07:35:59.781Z,9.27
2023-01-23T07:38:26.403Z,11.02
2023-01-23T07:40:53.144Z,11.88
2023-01-23T07:43:19.812Z,10.20
2023-01-23T07:45:46.404Z,9.83
2023-01-23T07:48:15.142Z,13.50
2023-01-23T07:50:46.766Z,13.65
2023-01-23T07:53:13.334Z,10.85
2023-01-23T07:55:42.445Z,12.20
2023-01-23T07:58:09.495Z,16.80
2023-01-23T08:00:36.111Z,11.23
2023-01-23T08:03:02.684Z,13.55
2023-01-23T08:05:29.221Z,13.35
2023-01-23T08:08:12.216Z,14.07
2023-01-23T08:10:39.878Z,12.00
2023-01-23T08:13:06.473Z,13.27
2023-01-23T08:15:33.099Z,10.90
2023-01-23T08:17:59.778Z,10.80
2023-01-23T08:20:26.367Z,14.15
2023-01-23T08:22:52.927Z,14.97
2023-01-23T08:25:19.595Z,14.25
2023-01-23T08:27:46.252Z,10.95
2023-01-23T08:30:13.257Z,10.65
2023-01-23T08:32:40.161Z,12.30
2023-01-23T08:35:07.368Z,10.83
2023-01-23T08:37:34.583Z,11.80
2023-01-23T08:40:01.436Z,13.65
2023-01-23T08:42:28.293Z,11.57
2023-01-23T08:44:56.338Z,12.23
2023-01-23T08:47:23.794Z,11.27
2023-01-23T08:49:50.605Z,13.07
2023-01-23T08:52:17.548Z,10.48
2023-01-23T08:54:44.250Z,15.07
2023-01-23T08:57:12.166Z,13.27
2023-01-23T08:59:41.346Z,15.00
2023-01-23T09:02:12.853Z,14.55
2023-01-23T09:04:43.151Z,14.25
2023-01-23T09:07:09.704Z,14.00
2023-01-23T09:09:36.437Z,13.32
2023-01-23T09:12:03.156Z,14.20
2023-01-23T09:14:29.738Z,17.67
2023-01-23T09:16:56.595Z,17.73
2023-01-23T09:19:23.160Z,20.15
2023-01-23T09:21:49.695Z,15.52
2023-01-23T09:24:17.103Z,16.03
2023-01-23T09:26:44.639Z,17.55
2023-01-23T09:29:11.201Z,13.68
2023-01-23T09:31:40.416Z,14.77
2023-01-23T09:34:09.934Z,13.98
2023-01-23T09:36:43.148Z,15.73
2023-01-23T09:39:11.254Z,12.15
2023-01-23T09:41:39.433Z,14.15
2023-01-23T09:44:13.418Z,14.23
2023-01-23T09:47:02.580Z,12.02
2023-01-23T09:49:54.050Z,15.50
2023-01-23T09:52:23.764Z,14.55
2023-01-23T09:54:53.812Z,11.15
2023-01-23T09:57:28.168Z,12.93
2023-01-23T10:00:36.759Z,12.55
2023-01-23T10:03:14.623Z,15.80
2023-01-23T10:06:15.187Z,16.17
2023-01-23T10:08:51.048Z,14.82
2023-01-23T10:11:29.484Z,16.90
2023-01-23T10:14:36.804Z,16.45
2023-01-23T10:17:06.430Z,17.20
2023-01-23T10:20:02.394Z,20.08
2023-01-23T10:23:01.385Z,15.35
2023-01-23T10:25:33.112Z,18.48
2023-01-23T10:28:22.224Z,15.60
2023-01-23T10:30:55.631Z,18.80
2023-01-23T10:33:37.098Z,16.38
2023-01-23T10:36:08.242Z,21.05
2023-01-23T10:38:49.981Z,18.55
2023-01-23T10:41:23.568Z,15.75
2023-01-23T10:43:53.473Z,17.60
2023-01-23T10:46:25.431Z,17.65
2023-01-23T10:48:54.975Z,20.27
2023-01-23T10:51:30.007Z,19.08
2023-01-23T10:54:13.062Z,15.48
2023-01-23T10:56:51.898Z,18.70
2023-01-23T10:59:34.146Z,16.13
2023-01-23T11:02:18.806Z,16.40
2023-01-23T11:04:50.042Z,17.42
2023-01-23T11:07:47.217Z,16.30
2023-01-23T11:10:18.699Z,20.70
2023-01-23T11:12:50.620Z,15.75
2023-01-23T11:15:29.299Z,18.88
2023-01-23T11:17:57.603Z,16.73
2023-01-23T11:20:37.325Z,14.73
2023-01-23T11:23:05.348Z,15.50
2023-01-23T11:25:42.042Z,12.23
2023-01-23T11:28:33.884Z,14.77
2023-01-23T11:31:15.381Z,16.08
2023-01-23T11:34:03.984Z,16.48
2023-01-23T11:36:48.710Z,19.20
2023-01-23T11:39:34.186Z,17.33
2023-01-23T11:42:01.108Z,15.48
2023-01-23T11:44:38.095Z,18.45
2023-01-23T11:47:59.977Z,16.20
2023-01-23T11:50:43.648Z,17.73
2023-01-23T11:53:43.749Z,15.35
2023-01-23T11:56:44.444Z,13.55
2023-01-23T11:59:34.496Z,14.68
2023-01-23T12:02:17.905Z,14.98
2023-01-23T12:08:54.073Z,16.08
2023-01-23T12:11:22.818Z,12.80
2023-01-23T12:14:27.129Z,14.70
2023-01-23T12:17:24.171Z,13.27
2023-01-23T12:20:17.099Z,11.23
2023-01-23T12:26:19.827Z,8.82
2023-01-23T12:29:22.784Z,10.52
2023-01-23T12:32:27.412Z,12.93
2023-01-23T12:34:59.947Z,15.80
2023-01-23T12:37:53.455Z,15.38
2023-01-23T12:40:39.405Z,14.82
2023-01-23T12:43:19.773Z,13.85
2023-01-23T12:45:56.360Z,15.43
2023-01-23T12:48:28.672Z,15.83
2023-01-23T12:51:08.413Z,16.33
2023-01-23T12:53:39.745Z,10.57
2023-01-23T12:56:36.219Z,11.27
2023-01-23T12:59:08.192Z,11.40
2023-01-23T13:02:11.851Z,8.63
2023-01-23T13:05:13.576Z,12.00
2023-01-23T13:08:03.912Z,13.50
2023-01-23T13:11:25.938Z,14.90
2023-01-23T13:13:54.105Z,12.05
2023-01-23T13:16:25.021Z,14.87
2023-01-23T13:19:20.047Z,18.17
2023-01-23T13:22:32.275Z,13.40
2023-01-23T13:25:17.725Z,14.50
2023-01-23T13:27:59.785Z,14.55
2023-01-23T13:30:26.696Z,12.30
2023-01-23T13:33:00.711Z,10.68
2023-01-23T13:36:01.015Z,12.65
2023-01-23T13:38:37.703Z,10.32
2023-01-23T13:41:18.872Z,10.35
2023-01-23T13:44:08.067Z,12.23
2023-01-23T14:22:08.067Z,16.17
2023-01-23T14:24:43.406Z,18.83
2023-01-23T14:27:22.025Z,15.47
2023-01-23T14:30:14.202Z,14.00
2023-01-23T14:32:48.524Z,24.48
2023-01-23T14:35:30.918Z,16.40
2023-01-23T14:38:00.965Z,14.48
2023-01-23T14:40:37.628Z,15.17
2023-01-23T14:43:20.249Z,12.13
2023-01-23T14:45:48.494Z,15.15
2023-01-23T14:48:20.338Z,16.20
2023-01-23T14:51:21.375Z,13.93
2023-01-23T14:54:10.195Z,11.77
2023-01-23T15:00:42.657Z,11.60
2023-01-23T15:03:12.549Z,15.23
2023-01-23T15:05:41.046Z,15.35
2023-01-23T15:08:31.949Z,14.50
2023-01-23T15:11:04.627Z,13.07
2023-01-23T15:13:38.142Z,14.63
2023-01-23T15:16:06.995Z,13.38
2023-01-23T15:18:35.307Z,14.38
2023-01-23T15:21:04.708Z,11.83
2023-01-23T15:23:34.994Z,15.13
2023-01-23T15:26:13.231Z,13.23
2023-01-23T15:28:55.806Z,14.32
2023-01-23T15:31:25.746Z,14.98
2023-01-23T15:33:52.607Z,14.27
2023-01-23T15:36:32.294Z,17.00
2023-01-23T15:38:59.817Z,19.35
2023-01-23T15:42:02.431Z,17.98
2023-01-23T15:44:31.255Z,20.60
2023-01-23T15:47:01.112Z,20.30
2023-01-23T15:49:28.863Z,19.73
2023-01-23T15:51:57.317Z,20.77
2023-01-23T15:54:28.070Z,19.88
2023-01-23T15:57:06.594Z,17.33
2023-01-23T15:59:34.794Z,18.60
2023-01-23T16:02:01.528Z,17.70
2023-01-23T16:04:28.121Z,20.95
2023-01-23T16:06:54.667Z,18.73
2023-01-23T16:09:30.903Z,19.75
2023-01-23T16:11:59.211Z,17.60
2023-01-23T16:14:27.934Z,17.13
2023-01-23T16:16:56.718Z,19.52
2023-01-23T16:19:24.837Z,22.25
2023-01-23T16:22:04.013Z,19.83
2023-01-23T16:24:36.509Z,22.70
2023-01-23T16:27:03.688Z,23.45
2023-01-23T16:29:32.361Z,22.63
2023-01-23T16:32:03.217Z,20.15
2023-01-23T16:34:29.878Z,22.35
2023-01-23T16:36:59.620Z,21.93
2023-01-23T16:39:29.529Z,22.15
2023-01-23T16:41:56.167Z,21.65
2023-01-23T16:44:26.276Z,22.98
2023-01-23T16:46:53.903Z,19.73
2023-01-23T16:49:20.881Z,20.50
2023-01-23T16:51:59.278Z,21.65
2023-01-23T16:54:26.416Z,20.25
2023-01-23T16:56:55.341Z,22.63
2023-01-23T16:59:31.032Z,21.25
2023-01-23T17:01:57.866Z,20.33
2023-01-23T17:04:24.706Z,21.40
2023-01-23T17:06:52.681Z,18.90
2023-01-23T17:09:19.267Z,37.47
2023-01-23T17:11:51.463Z,22.05
2023-01-23T17:14:21.707Z,17.30
2023-01-23T17:16:49.576Z,14.82
2023-01-23T17:19:20.571Z,16.33
2023-01-23T17:21:50.309Z,15.48
2023-01-23T17:24:17.678Z,15.60
2023-01-23T17:26:44.647Z,20.00
2023-01-23T17:29:11.423Z,21.25
2023-01-23T17:31:39.061Z,17.40
2023-01-23T17:34:06.747Z,23.80
2023-01-23T17:36:33.510Z,24.23
2023-01-23T17:39:00.394Z,21.03
2023-01-23T17:41:26.961Z,21.58
2023-01-23T17:43:53.675Z,19.95
2023-01-23T17:46:21.484Z,18.38
2023-01-23T17:48:48.298Z,13.73
2023-01-23T17:51:19.885Z,11.27
2023-01-23T17:53:47.064Z,12.15
2023-01-23T17:56:13.839Z,11.07
2023-01-23T17:58:40.501Z,10.32
2023-01-23T18:01:34.074Z,13.68
2023-01-23T18:04:01.917Z,10.17
2023-01-23T18:06:29.805Z,11.13
2023-01-23T18:08:57.058Z,10.98
2023-01-23T18:11:28.297Z,11.02
2023-01-23T18:14:16.966Z,11.85
2023-01-23T18:16:50.333Z,14.73
2023-01-23T18:19:27.173Z,10.40
2023-01-23T18:21:55.944Z,8.57
2023-01-23T18:24:23.066Z,9.05
2023-01-23T18:27:03.351Z,8.48
2023-01-23T18:29:32.210Z,10.03
2023-01-23T18:32:03.083Z,9.93
2023-01-23T18:34:48.520Z,8.65
2023-01-23T18:37:28.845Z,8.07
2023-01-23T18:40:01.398Z,10.13
2023-01-23T18:42:35.560Z,10.07
2023-01-23T18:45:12.400Z,12.48
2023-01-23T18:47:41.647Z,10.38
2023-01-23T18:50:09.246Z,10.70
2023-01-23T18:53:06.699Z,7.97
2023-01-23T18:55:39.859Z,8.17
2023-01-23T18:58:18.540Z,7.88
2023-01-23T19:01:16.192Z,9.77
2023-01-23T19:03:44.045Z,11.73
2023-01-23T19:06:17.964Z,9.57
2023-01-23T19:08:44.692Z,8.53
2023-01-23T19:11:37.223Z,9.15
2023-01-23T19:14:10.666Z,9.77
2023-01-23T19:16:45.748Z,10.65
2023-01-23T19:19:38.647Z,14.55
2023-01-23T19:22:11.543Z,8.47
2023-01-23T19:24:38.380Z,9.32
2023-01-23T19:27:17.175Z,10.43
2023-01-23T19:29:44.031Z,8.15
2023-01-23T19:32:11.209Z,8.70
2023-01-23T19:34:37.916Z,9.57
2023-01-23T19:37:04.698Z,9.75
2023-01-23T19:39:31.447Z,11.38
2023-01-23T19:41:59.114Z,9.82
2023-01-23T19:44:28.660Z,9.80
2023-01-23T19:46:55.230Z,10.33
2023-01-23T19:49:21.837Z,11.90
2023-01-23T19:51:48.432Z,11.10
2023-01-23T19:54:19.424Z,10.57
2023-01-23T19:56:47.794Z,11.13
2023-01-23T19:59:14.396Z,8.63
2023-01-23T20:01:50.146Z,10.10
2023-01-23T20:04:22.158Z,9.20
2023-01-23T20:06:51.643Z,10.48
2023-01-23T20:09:20.969Z,8.00
2023-01-23T20:11:47.605Z,8.60
2023-01-23T20:14:14.322Z,9.15
2023-01-23T20:16:43.022Z,9.68
2023-01-23T20:19:14.888Z,9.25
2023-01-23T20:21:42.477Z,8.10
2023-01-23T20:24:11.486Z,8.20
2023-01-23T20:27:11.491Z,10.70
2023-01-23T20:29:39.257Z,8.50
2023-01-23T20:32:06.101Z,10.60
2023-01-23T20:34:34.152Z,11.13
2023-01-23T20:37:02.147Z,8.80
2023-01-23T20:39:28.682Z,9.48
2023-01-23T20:41:55.303Z,10.32
2023-01-23T20:44:23.601Z,11.55
2023-01-23T20:46:50.414Z,10.40
2023-01-23T20:49:17.210Z,9.77
2023-01-23T20:51:44.009Z,13.02
2023-01-23T20:54:10.600Z,11.38
2023-01-23T20:56:37.206Z,11.95
2023-01-23T20:59:32.779Z,11.73
2023-01-23T21:02:25.262Z,12.23
2023-01-23T21:04:53.153Z,8.25
2023-01-23T21:07:22.996Z,6.40
2023-01-23T21:09:49.688Z,8.82
2023-01-23T21:12:16.285Z,6.95
2023-01-23T21:14:42.880Z,7.70
2023-01-23T21:17:09.862Z,8.23
2023-01-23T21:19:38.845Z,11.23
2023-01-23T21:22:06.752Z,7.68
2023-01-23T21:24:34.559Z,7.47
2023-01-23T21:27:02.819Z,7.87
2023-01-23T21:29:30.547Z,8.05
2023-01-23T21:31:57.623Z,8.75
2023-01-23T21:34:25.604Z,9.55
2023-01-23T21:36:52.917Z,8.20
2023-01-23T21:39:19.897Z,8.03
2023-01-23T21:41:46.821Z,8.35
2023-01-23T21:44:14.134Z,9.25
2023-01-23T21:46:41.333Z,7.13
2023-01-23T21:49:09.782Z,9.10
2023-01-23T21:51:37.033Z,7.10
2023-01-23T21:54:04.540Z,8.90
2023-01-23T21:56:31.120Z,7.80
2023-01-23T21:58:58.864Z,6.38
2023-01-23T22:01:50.999Z,8.98
2023-01-23T22:04:20.684Z,8.93
2023-01-23T22:06:47.395Z,7.20
2023-01-23T22:09:17.089Z,7.22
2023-01-23T22:11:44.213Z,7.78
2023-01-23T22:14:11.009Z,7.60
2023-01-23T22:16:48.435Z,6.03
2023-01-23T22:19:18.806Z,6.65
2023-01-23T22:21:46.535Z,6.25
2023-01-23T22:24:15.249Z,7.60
2023-01-23T22:26:42.418Z,7.30
2023-01-23T22:29:09.040Z,8.20
2023-01-23T22:31:35.996Z,8.40
2023-01-23T22:34:02.998Z,9.63
2023-01-23T22:36:29.603Z,9.68
2023-01-23T22:38:56.338Z,8.10
2023-01-23T22:41:23.248Z,8.00
2023-01-23T22:43:59.130Z,8.50
2023-01-23T22:46:25.930Z,8.20
2023-01-23T22:48:52.498Z,9.15
2023-01-23T22:51:23.182Z,7.80
2023-01-23T22:53:51.645Z,7.07
2023-01-23T22:56:18.223Z,7.93
2023-01-23T22:58:48.828Z,7.72
2023-01-23T23:01:15.993Z,8.27
2023-01-23T23:03:42.789Z,8.48
2023-01-23T23:06:13.111Z,7.33
2023-01-23T23:08:40.326Z,7.60
2023-01-23T23:11:12.397Z,8.55
2023-01-23T23:13:40.350Z,8.70
2023-01-23T23:16:09.635Z,10.02
2023-01-23T23:18:38.282Z,10.00
2023-01-23T23:21:10.946Z,9.07
2023-01-23T23:23:37.668Z,8.23
2023-01-23T23:26:05.206Z,8.60
2023-01-23T23:28:32.823Z,7.05
2023-01-23T23:30:59.517Z,7.63
2023-01-23T23:33:26.607Z,7.45
2023-01-23T23:35:53.709Z,7.90
2023-01-23T23:38:20.690Z,7.80
2023-01-23T23:41:03.931Z,7.55
2023-01-23T23:43:30.462Z,9.70
2023-01-23T23:45:59.036Z,8.82
2023-01-23T23:48:26.483Z,10.07
2023-01-23T23:50:53.536Z,9.15
2023-01-23T23:53:20.370Z,11.07
2023-01-23T23:55:47.513Z,10.87
2023-01-23T23:58:15.218Z,10.68
